sensor_id;sensor_type;location;lat;lon;timestamp;P1;durP1;ratioP1;P2;durP2;ratioP2
15061;SDS011;7630;50.306;8.566;2022-08-25T00:03:20;9.37;;;4.37;;
15061;SDS011;7630;50.306;8.566;2022-08-25T00:07:23;4.33;;;4.03;;
15061;SDS011;7630;50.306;8.566;2022-08-25T00:11:25;4.83;;;4.37;;
15061;SDS011;7630;50.306;8.566;2022-08-25T00:15:29;4.93;;;4.53;;
15061;SDS011;7630;50.306;8.566;2022-08-25T00:19:33;4.93;;;4.30;;
15061;SDS011;7630;50.306;8.566;2022-08-25T00:23:35;6.87;;;5.03;;
15061;SDS011;7630;50.306;8.566;2022-08-25T00:27:37;4.33;;;4.00;;
15061;SDS011;7630;50.306;8.566;2022-08-25T00:31:38;4.60;;;3.80;;
15061;SDS011;7630;50.306;8.566;2022-08-25T00:35:40;5.70;;;5.30;;
15061;SDS011;7630;50.306;8.566;2022-08-25T00:39:42;4.10;;;3.87;;
15061;SDS011;7630;50.306;8.566;2022-08-25T00:43:45;4.60;;;4.20;;
15061;SDS011;7630;50.306;8.566;2022-08-25T00:47:51;4.60;;;4.30;;
15061;SDS011;7630;50.306;8.566;2022-08-25T00:51:54;6.27;;;5.13;;
15061;SDS011;7630;50.306;8.566;2022-08-25T00:56:00;5.47;;;4.93;;
15061;SDS011;7630;50.306;8.566;2022-08-25T01:00:05;4.80;;;4.40;;
15061;SDS011;7630;50.306;8.566;2022-08-25T01:04:07;4.83;;;4.53;;
15061;SDS011;7630;50.306;8.566;2022-08-25T01:08:08;4.77;;;4.37;;
15061;SDS011;7630;50.306;8.566;2022-08-25T01:12:11;9.13;;;4.73;;
15061;SDS011;7630;50.306;8.566;2022-08-25T01:16:12;5.80;;;5.30;;
15061;SDS011;7630;50.306;8.566;2022-08-25T01:20:16;7.43;;;6.57;;
15061;SDS011;7630;50.306;8.566;2022-08-25T01:24:21;5.17;;;4.67;;
15061;SDS011;7630;50.306;8.566;2022-08-25T01:28:24;5.63;;;4.97;;
15061;SDS011;7630;50.306;8.566;2022-08-25T01:32:25;5.40;;;4.90;;
15061;SDS011;7630;50.306;8.566;2022-08-25T01:36:27;5.67;;;5.27;;
15061;SDS011;7630;50.306;8.566;2022-08-25T01:40:29;6.00;;;5.60;;
15061;SDS011;7630;50.306;8.566;2022-08-25T01:44:31;6.30;;;5.80;;
15061;SDS011;7630;50.306;8.566;2022-08-25T01:48:35;7.13;;;6.53;;
15061;SDS011;7630;50.306;8.566;2022-08-25T01:52:44;5.70;;;5.30;;
15061;SDS011;7630;50.306;8.566;2022-08-25T01:57:00;6.70;;;6.20;;
15061;SDS011;7630;50.306;8.566;2022-08-25T02:01:03;6.30;;;5.50;;
15061;SDS011;7630;50.306;8.566;2022-08-25T02:05:07;6.77;;;6.17;;
15061;SDS011;7630;50.306;8.566;2022-08-25T02:09:12;7.70;;;6.93;;
15061;SDS011;7630;50.306;8.566;2022-08-25T02:13:14;6.53;;;6.03;;
15061;SDS011;7630;50.306;8.566;2022-08-25T02:17:16;6.47;;;5.63;;
15061;SDS011;7630;50.306;8.566;2022-08-25T02:21:17;6.60;;;6.07;;
15061;SDS011;7630;50.306;8.566;2022-08-25T02:25:18;7.13;;;5.60;;
15061;SDS011;7630;50.306;8.566;2022-08-25T02:29:20;6.37;;;5.87;;
15061;SDS011;7630;50.306;8.566;2022-08-25T02:33:21;6.77;;;6.17;;
15061;SDS011;7630;50.306;8.566;2022-08-25T02:37:22;13.77;;;7.07;;
15061;SDS011;7630;50.306;8.566;2022-08-25T02:41:23;8.53;;;7.73;;
15061;SDS011;7630;50.306;8.566;2022-08-25T02:45:27;7.50;;;6.90;;
15061;SDS011;7630;50.306;8.566;2022-08-25T02:49:28;6.93;;;6.33;;
15061;SDS011;7630;50.306;8.566;2022-08-25T02:53:31;6.73;;;6.23;;
15061;SDS011;7630;50.306;8.566;2022-08-25T02:57:33;7.90;;;7.37;;
15061;SDS011;7630;50.306;8.566;2022-08-25T03:01:35;8.37;;;7.77;;
15061;SDS011;7630;50.306;8.566;2022-08-25T03:05:36;7.70;;;7.10;;
15061;SDS011;7630;50.306;8.566;2022-08-25T03:09:38;7.27;;;6.67;;
15061;SDS011;7630;50.306;8.566;2022-08-25T03:13:39;7.90;;;7.30;;
15061;SDS011;7630;50.306;8.566;2022-08-25T03:17:42;7.33;;;6.73;;
15061;SDS011;7630;50.306;8.566;2022-08-25T03:21:46;8.53;;;7.37;;
15061;SDS011;7630;50.306;8.566;2022-08-25T03:25:47;15.07;;;7.83;;
15061;SDS011;7630;50.306;8.566;2022-08-25T03:30:08;8.50;;;7.67;;
15061;SDS011;7630;50.306;8.566;2022-08-25T03:34:11;8.40;;;7.43;;
15061;SDS011;7630;50.306;8.566;2022-08-25T03:38:14;7.37;;;6.77;;
15061;SDS011;7630;50.306;8.566;2022-08-25T03:42:16;7.67;;;6.93;;
15061;SDS011;7630;50.306;8.566;2022-08-25T03:46:18;8.53;;;7.73;;
15061;SDS011;7630;50.306;8.566;2022-08-25T03:50:22;8.93;;;7.50;;
15061;SDS011;7630;50.306;8.566;2022-08-25T03:54:24;7.40;;;6.70;;
15061;SDS011;7630;50.306;8.566;2022-08-25T03:58:25;7.53;;;7.03;;
15061;SDS011;7630;50.306;8.566;2022-08-25T04:02:27;8.07;;;7.37;;
15061;SDS011;7630;50.306;8.566;2022-08-25T04:06:28;8.00;;;7.40;;
15061;SDS011;7630;50.306;8.566;2022-08-25T04:10:29;12.13;;;9.27;;
15061;SDS011;7630;50.306;8.566;2022-08-25T04:14:31;10.80;;;9.73;;
15061;SDS011;7630;50.306;8.566;2022-08-25T04:18:32;9.23;;;8.53;;
15061;SDS011;7630;50.306;8.566;2022-08-25T04:22:34;10.83;;;9.03;;
15061;SDS011;7630;50.306;8.566;2022-08-25T04:26:42;10.30;;;7.63;;
15061;SDS011;7630;50.306;8.566;2022-08-25T04:30:45;8.40;;;7.60;;
15061;SDS011;7630;50.306;8.566;2022-08-25T04:34:48;8.83;;;8.13;;
15061;SDS011;7630;50.306;8.566;2022-08-25T04:38:49;11.30;;;8.00;;
15061;SDS011;7630;50.306;8.566;2022-08-25T04:42:51;10.23;;;9.53;;
15061;SDS011;7630;50.306;8.566;2022-08-25T04:46:52;9.23;;;8.13;;
15061;SDS011;7630;50.306;8.566;2022-08-25T04:50:53;9.90;;;8.97;;
15061;SDS011;7630;50.306;8.566;2022-08-25T04:54:55;10.10;;;9.13;;
15061;SDS011;7630;50.306;8.566;2022-08-25T04:58:56;9.33;;;8.53;;
15061;SDS011;7630;50.306;8.566;2022-08-25T05:02:57;10.10;;;9.10;;
15061;SDS011;7630;50.306;8.566;2022-08-25T05:06:58;9.73;;;8.33;;
15061;SDS011;7630;50.306;8.566;2022-08-25T05:11:06;10.23;;;9.43;;
15061;SDS011;7630;50.306;8.566;2022-08-25T05:15:13;10.70;;;9.50;;
15061;SDS011;7630;50.306;8.566;2022-08-25T05:19:34;10.67;;;9.67;;
15061;SDS011;7630;50.306;8.566;2022-08-25T05:23:36;9.20;;;8.50;;
15061;SDS011;7630;50.306;8.566;2022-08-25T05:27:38;9.53;;;8.63;;
15061;SDS011;7630;50.306;8.566;2022-08-25T05:31:39;10.00;;;9.27;;
15061;SDS011;7630;50.306;8.566;2022-08-25T05:35:42;10.13;;;9.27;;
15061;SDS011;7630;50.306;8.566;2022-08-25T05:39:43;9.77;;;8.80;;
15061;SDS011;7630;50.306;8.566;2022-08-25T05:43:45;9.03;;;8.23;;
15061;SDS011;7630;50.306;8.566;2022-08-25T05:47:48;11.30;;;9.40;;
15061;SDS011;7630;50.306;8.566;2022-08-25T05:51:49;9.23;;;8.53;;
15061;SDS011;7630;50.306;8.566;2022-08-25T05:55:51;9.77;;;8.87;;
15061;SDS011;7630;50.306;8.566;2022-08-25T05:59:53;14.80;;;9.63;;
15061;SDS011;7630;50.306;8.566;2022-08-25T06:03:54;9.90;;;8.90;;
15061;SDS011;7630;50.306;8.566;2022-08-25T06:07:55;9.17;;;8.40;;
15061;SDS011;7630;50.306;8.566;2022-08-25T06:11:56;9.47;;;8.57;;
15061;SDS011;7630;50.306;8.566;2022-08-25T06:15:58;10.57;;;8.87;;
15061;SDS011;7630;50.306;8.566;2022-08-25T06:20:00;12.37;;;9.43;;
15061;SDS011;7630;50.306;8.566;2022-08-25T06:24:03;9.97;;;9.00;;
15061;SDS011;7630;50.306;8.566;2022-08-25T06:28:05;9.87;;;9.00;;
15061;SDS011;7630;50.306;8.566;2022-08-25T06:32:06;10.57;;;9.70;;
15061;SDS011;7630;50.306;8.566;2022-08-25T06:36:07;10.40;;;9.50;;
15061;SDS011;7630;50.306;8.566;2022-08-25T06:40:09;12.60;;;9.67;;
15061;SDS011;7630;50.306;8.566;2022-08-25T06:44:11;9.20;;;8.30;;
15061;SDS011;7630;50.306;8.566;2022-08-25T06:48:12;10.43;;;9.63;;
15061;SDS011;7630;50.306;8.566;2022-08-25T06:52:14;9.57;;;8.80;;
15061;SDS011;7630;50.306;8.566;2022-08-25T06:56:16;8.57;;;7.97;;
15061;SDS011;7630;50.306;8.566;2022-08-25T07:00:19;12.93;;;9.47;;
15061;SDS011;7630;50.306;8.566;2022-08-25T07:04:21;10.53;;;9.47;;
15061;SDS011;7630;50.306;8.566;2022-08-25T07:08:22;10.73;;;9.67;;
15061;SDS011;7630;50.306;8.566;2022-08-25T07:12:23;10.60;;;9.30;;
15061;SDS011;7630;50.306;8.566;2022-08-25T07:16:25;10.90;;;9.97;;
15061;SDS011;7630;50.306;8.566;2022-08-25T07:20:28;10.70;;;9.20;;
15061;SDS011;7630;50.306;8.566;2022-08-25T07:24:31;10.20;;;9.20;;
15061;SDS011;7630;50.306;8.566;2022-08-25T07:28:32;9.83;;;9.00;;
15061;SDS011;7630;50.306;8.566;2022-08-25T07:32:35;10.47;;;9.77;;
15061;SDS011;7630;50.306;8.566;2022-08-25T07:36:36;10.23;;;9.40;;
15061;SDS011;7630;50.306;8.566;2022-08-25T07:40:39;11.63;;;10.57;;
15061;SDS011;7630;50.306;8.566;2022-08-25T07:44:42;9.63;;;8.77;;
15061;SDS011;7630;50.306;8.566;2022-08-25T07:48:43;11.40;;;9.93;;
15061;SDS011;7630;50.306;8.566;2022-08-25T07:52:46;10.63;;;9.30;;
15061;SDS011;7630;50.306;8.566;2022-08-25T07:56:50;10.20;;;9.33;;
15061;SDS011;7630;50.306;8.566;2022-08-25T08:00:53;10.80;;;9.77;;
15061;SDS011;7630;50.306;8.566;2022-08-25T08:04:55;11.07;;;10.13;;
15061;SDS011;7630;50.306;8.566;2022-08-25T08:08:56;10.87;;;9.90;;
15061;SDS011;7630;50.306;8.566;2022-08-25T08:12:59;10.43;;;9.53;;
15061;SDS011;7630;50.306;8.566;2022-08-25T08:17:05;10.47;;;9.50;;
15061;SDS011;7630;50.306;8.566;2022-08-25T08:21:11;9.70;;;8.97;;
15061;SDS011;7630;50.306;8.566;2022-08-25T08:25:16;9.67;;;8.87;;
15061;SDS011;7630;50.306;8.566;2022-08-25T08:29:19;11.00;;;10.13;;
15061;SDS011;7630;50.306;8.566;2022-08-25T08:33:23;10.30;;;9.50;;
15061;SDS011;7630;50.306;8.566;2022-08-25T08:37:24;9.90;;;9.00;;
15061;SDS011;7630;50.306;8.566;2022-08-25T08:46:03;10.70;;;8.40;;
15061;SDS011;7630;50.306;8.566;2022-08-25T08:54:30;8.93;;;8.13;;
15061;SDS011;7630;50.306;8.566;2022-08-25T08:58:42;8.60;;;7.80;;
15061;SDS011;7630;50.306;8.566;2022-08-25T09:06:52;8.13;;;7.57;;
15061;SDS011;7630;50.306;8.566;2022-08-25T09:29:05;8.60;;;7.93;;
15061;SDS011;7630;50.306;8.566;2022-08-25T09:33:14;7.83;;;7.10;;
15061;SDS011;7630;50.306;8.566;2022-08-25T09:37:20;8.73;;;8.03;;
15061;SDS011;7630;50.306;8.566;2022-08-25T09:50:03;10.93;;;9.63;;
15061;SDS011;7630;50.306;8.566;2022-08-25T09:58:21;10.50;;;9.50;;
15061;SDS011;7630;50.306;8.566;2022-08-25T10:02:27;8.43;;;7.70;;
15061;SDS011;7630;50.306;8.566;2022-08-25T10:06:32;9.33;;;8.47;;
15061;SDS011;7630;50.306;8.566;2022-08-25T10:10:45;8.87;;;8.17;;
15061;SDS011;7630;50.306;8.566;2022-08-25T10:14:49;8.80;;;7.80;;
15061;SDS011;7630;50.306;8.566;2022-08-25T10:23:08;8.90;;;8.10;;
15061;SDS011;7630;50.306;8.566;2022-08-25T10:27:17;9.60;;;8.57;;
15061;SDS011;7630;50.306;8.566;2022-08-25T10:31:33;9.53;;;8.10;;
15061;SDS011;7630;50.306;8.566;2022-08-25T10:35:59;10.27;;;9.37;;
15061;SDS011;7630;50.306;8.566;2022-08-25T10:44:51;8.83;;;8.03;;
15061;SDS011;7630;50.306;8.566;2022-08-25T10:49:43;8.13;;;7.50;;
15061;SDS011;7630;50.306;8.566;2022-08-25T10:54:47;8.03;;;7.23;;
15061;SDS011;7630;50.306;8.566;2022-08-25T10:58:14;8.77;;;8.00;;
15061;SDS011;7630;50.306;8.566;2022-08-25T11:06:51;9.33;;;7.80;;
15061;SDS011;7630;50.306;8.566;2022-08-25T11:11:01;12.60;;;9.03;;
15061;SDS011;7630;50.306;8.566;2022-08-25T11:15:06;8.60;;;7.80;;
15061;SDS011;7630;50.306;8.566;2022-08-25T11:23:27;6.63;;;6.20;;
15061;SDS011;7630;50.306;8.566;2022-08-25T11:32:11;7.90;;;7.20;;
15061;SDS011;7630;50.306;8.566;2022-08-25T11:36:32;7.87;;;7.13;;
15061;SDS011;7630;50.306;8.566;2022-08-25T11:40:40;9.27;;;8.37;;
15061;SDS011;7630;50.306;8.566;2022-08-25T11:45:01;9.13;;;8.33;;
15061;SDS011;7630;50.306;8.566;2022-08-25T11:49:10;8.13;;;7.57;;
15061;SDS011;7630;50.306;8.566;2022-08-25T11:57:22;8.07;;;7.47;;
15061;SDS011;7630;50.306;8.566;2022-08-25T12:05:49;8.60;;;8.07;;
15061;SDS011;7630;50.306;8.566;2022-08-25T12:14:07;11.00;;;8.43;;
15061;SDS011;7630;50.306;8.566;2022-08-25T12:18:36;11.40;;;8.27;;
15061;SDS011;7630;50.306;8.566;2022-08-25T12:26:38;7.77;;;7.17;;
15061;SDS011;7630;50.306;8.566;2022-08-25T12:30:55;7.60;;;6.90;;
15061;SDS011;7630;50.306;8.566;2022-08-25T12:39:20;6.97;;;6.27;;
15061;SDS011;7630;50.306;8.566;2022-08-25T12:43:28;6.33;;;5.83;;
15061;SDS011;7630;50.306;8.566;2022-08-25T12:47:35;11.47;;;6.80;;
15061;SDS011;7630;50.306;8.566;2022-08-25T12:55:52;5.73;;;5.33;;
15061;SDS011;7630;50.306;8.566;2022-08-25T12:59:57;6.57;;;5.90;;
15061;SDS011;7630;50.306;8.566;2022-08-25T13:17:39;6.07;;;5.57;;
15061;SDS011;7630;50.306;8.566;2022-08-25T13:21:41;7.67;;;6.67;;
15061;SDS011;7630;50.306;8.566;2022-08-25T13:25:48;7.63;;;6.93;;
15061;SDS011;7630;50.306;8.566;2022-08-25T13:29:53;6.37;;;5.97;;
15061;SDS011;7630;50.306;8.566;2022-08-25T13:34:07;7.83;;;7.17;;
15061;SDS011;7630;50.306;8.566;2022-08-25T13:38:12;7.57;;;6.63;;
15061;SDS011;7630;50.306;8.566;2022-08-25T13:42:18;7.57;;;6.63;;
15061;SDS011;7630;50.306;8.566;2022-08-25T13:46:20;6.73;;;6.23;;
15061;SDS011;7630;50.306;8.566;2022-08-25T13:54:33;7.57;;;6.77;;
15061;SDS011;7630;50.306;8.566;2022-08-25T13:58:42;7.87;;;7.17;;
15061;SDS011;7630;50.306;8.566;2022-08-25T14:02:48;7.40;;;6.80;;
15061;SDS011;7630;50.306;8.566;2022-08-25T14:07:04;7.73;;;7.13;;
15061;SDS011;7630;50.306;8.566;2022-08-25T14:11:31;7.40;;;6.70;;
15061;SDS011;7630;50.306;8.566;2022-08-25T14:15:34;7.30;;;6.73;;
15061;SDS011;7630;50.306;8.566;2022-08-25T14:19:36;7.20;;;6.60;;
15061;SDS011;7630;50.306;8.566;2022-08-25T14:23:41;7.33;;;6.83;;
15061;SDS011;7630;50.306;8.566;2022-08-25T14:27:43;7.30;;;6.60;;
15061;SDS011;7630;50.306;8.566;2022-08-25T14:31:46;6.63;;;6.13;;
15061;SDS011;7630;50.306;8.566;2022-08-25T14:35:50;7.30;;;6.60;;
15061;SDS011;7630;50.306;8.566;2022-08-25T14:39:53;7.43;;;6.73;;
15061;SDS011;7630;50.306;8.566;2022-08-25T14:43:55;7.30;;;6.63;;
15061;SDS011;7630;50.306;8.566;2022-08-25T14:47:58;6.27;;;5.87;;
15061;SDS011;7630;50.306;8.566;2022-08-25T14:52:04;6.67;;;6.07;;
15061;SDS011;7630;50.306;8.566;2022-08-25T14:56:07;6.23;;;5.63;;
15061;SDS011;7630;50.306;8.566;2022-08-25T15:00:10;6.13;;;5.53;;
15061;SDS011;7630;50.306;8.566;2022-08-25T15:04:16;6.03;;;5.43;;
15061;SDS011;7630;50.306;8.566;2022-08-25T15:08:20;5.53;;;5.13;;
15061;SDS011;7630;50.306;8.566;2022-08-25T15:12:40;6.00;;;5.40;;
15061;SDS011;7630;50.306;8.566;2022-08-25T15:16:44;5.93;;;5.53;;
15061;SDS011;7630;50.306;8.566;2022-08-25T15:20:49;6.30;;;5.70;;
15061;SDS011;7630;50.306;8.566;2022-08-25T15:24:50;7.33;;;6.63;;
15061;SDS011;7630;50.306;8.566;2022-08-25T15:28:53;7.77;;;6.43;;
15061;SDS011;7630;50.306;8.566;2022-08-25T15:32:54;6.60;;;5.93;;
15061;SDS011;7630;50.306;8.566;2022-08-25T15:36:57;8.73;;;6.90;;
15061;SDS011;7630;50.306;8.566;2022-08-25T15:41:00;6.80;;;6.30;;
15061;SDS011;7630;50.306;8.566;2022-08-25T15:45:03;6.60;;;6.10;;
15061;SDS011;7630;50.306;8.566;2022-08-25T15:49:05;6.63;;;6.03;;
15061;SDS011;7630;50.306;8.566;2022-08-25T15:53:08;6.77;;;6.07;;
15061;SDS011;7630;50.306;8.566;2022-08-25T15:57:10;6.63;;;5.93;;
15061;SDS011;7630;50.306;8.566;2022-08-25T16:01:14;7.70;;;7.03;;
15061;SDS011;7630;50.306;8.566;2022-08-25T16:05:19;6.63;;;6.03;;
15061;SDS011;7630;50.306;8.566;2022-08-25T16:09:22;6.33;;;5.87;;
15061;SDS011;7630;50.306;8.566;2022-08-25T16:13:23;7.30;;;6.63;;
15061;SDS011;7630;50.306;8.566;2022-08-25T16:17:25;7.33;;;6.83;;
15061;SDS011;7630;50.306;8.566;2022-08-25T16:21:28;10.23;;;7.43;;
15061;SDS011;7630;50.306;8.566;2022-08-25T16:25:37;6.23;;;5.83;;
15061;SDS011;7630;50.306;8.566;2022-08-25T16:29:42;6.57;;;5.93;;
15061;SDS011;7630;50.306;8.566;2022-08-25T16:33:44;7.47;;;6.73;;
15061;SDS011;7630;50.306;8.566;2022-08-25T16:37:45;7.23;;;6.57;;
15061;SDS011;7630;50.306;8.566;2022-08-25T16:41:48;7.47;;;6.87;;
15061;SDS011;7630;50.306;8.566;2022-08-25T16:45:58;7.43;;;6.83;;
15061;SDS011;7630;50.306;8.566;2022-08-25T16:50:03;8.63;;;6.30;;
15061;SDS011;7630;50.306;8.566;2022-08-25T16:54:07;6.90;;;6.30;;
15061;SDS011;7630;50.306;8.566;2022-08-25T16:58:29;7.43;;;6.93;;
15061;SDS011;7630;50.306;8.566;2022-08-25T17:02:32;6.70;;;6.03;;
15061;SDS011;7630;50.306;8.566;2022-08-25T17:06:35;7.50;;;6.70;;
15061;SDS011;7630;50.306;8.566;2022-08-25T17:10:42;10.60;;;6.93;;
15061;SDS011;7630;50.306;8.566;2022-08-25T17:14:44;7.43;;;6.83;;
15061;SDS011;7630;50.306;8.566;2022-08-25T17:18:45;6.87;;;6.23;;
15061;SDS011;7630;50.306;8.566;2022-08-25T17:22:48;6.47;;;5.97;;
15061;SDS011;7630;50.306;8.566;2022-08-25T17:26:50;6.27;;;5.73;;
15061;SDS011;7630;50.306;8.566;2022-08-25T17:30:51;6.47;;;5.83;;
15061;SDS011;7630;50.306;8.566;2022-08-25T17:34:54;6.30;;;5.80;;
15061;SDS011;7630;50.306;8.566;2022-08-25T17:38:55;5.87;;;5.30;;
15061;SDS011;7630;50.306;8.566;2022-08-25T17:42:57;6.27;;;5.70;;
15061;SDS011;7630;50.306;8.566;2022-08-25T17:46:59;5.07;;;4.67;;
15061;SDS011;7630;50.306;8.566;2022-08-25T17:51:00;6.13;;;5.53;;
15061;SDS011;7630;50.306;8.566;2022-08-25T17:55:02;5.27;;;4.80;;
15061;SDS011;7630;50.306;8.566;2022-08-25T17:59:06;8.23;;;6.03;;
15061;SDS011;7630;50.306;8.566;2022-08-25T18:03:09;6.13;;;5.63;;
15061;SDS011;7630;50.306;8.566;2022-08-25T18:07:10;5.83;;;5.43;;
15061;SDS011;7630;50.306;8.566;2022-08-25T18:11:11;6.00;;;5.53;;
15061;SDS011;7630;50.306;8.566;2022-08-25T18:15:14;5.23;;;4.70;;
15061;SDS011;7630;50.306;8.566;2022-08-25T18:19:15;5.00;;;4.53;;
15061;SDS011;7630;50.306;8.566;2022-08-25T18:23:16;6.20;;;5.37;;
15061;SDS011;7630;50.306;8.566;2022-08-25T18:27:19;9.40;;;6.03;;
15061;SDS011;7630;50.306;8.566;2022-08-25T18:31:22;5.00;;;4.60;;
15061;SDS011;7630;50.306;8.566;2022-08-25T18:35:24;5.20;;;4.80;;
15061;SDS011;7630;50.306;8.566;2022-08-25T18:39:27;9.77;;;6.00;;
15061;SDS011;7630;50.306;8.566;2022-08-25T18:43:47;7.62;;;6.95;;
15061;SDS011;7630;50.306;8.566;2022-08-25T18:47:48;8.60;;;6.63;;
15061;SDS011;7630;50.306;8.566;2022-08-25T18:51:51;6.83;;;6.23;;
15061;SDS011;7630;50.306;8.566;2022-08-25T18:55:53;8.10;;;6.97;;
15061;SDS011;7630;50.306;8.566;2022-08-25T18:59:54;7.47;;;6.77;;
15061;SDS011;7630;50.306;8.566;2022-08-25T19:03:56;7.03;;;6.40;;
15061;SDS011;7630;50.306;8.566;2022-08-25T19:07:57;6.90;;;6.33;;
15061;SDS011;7630;50.306;8.566;2022-08-25T19:12:00;6.47;;;5.87;;
15061;SDS011;7630;50.306;8.566;2022-08-25T19:16:16;11.30;;;10.20;;
15061;SDS011;7630;50.306;8.566;2022-08-25T19:20:21;11.90;;;9.07;;
15061;SDS011;7630;50.306;8.566;2022-08-25T19:24:24;7.73;;;7.03;;
15061;SDS011;7630;50.306;8.566;2022-08-25T19:28:26;8.63;;;7.53;;
15061;SDS011;7630;50.306;8.566;2022-08-25T19:32:28;7.47;;;6.77;;
15061;SDS011;7630;50.306;8.566;2022-08-25T19:36:29;7.03;;;5.87;;
15061;SDS011;7630;50.306;8.566;2022-08-25T19:40:31;7.10;;;6.50;;
15061;SDS011;7630;50.306;8.566;2022-08-25T19:44:33;8.07;;;7.27;;
15061;SDS011;7630;50.306;8.566;2022-08-25T19:48:35;10.10;;;7.07;;
15061;SDS011;7630;50.306;8.566;2022-08-25T19:52:38;9.23;;;7.83;;
15061;SDS011;7630;50.306;8.566;2022-08-25T19:56:42;8.17;;;7.47;;
15061;SDS011;7630;50.306;8.566;2022-08-25T20:00:46;13.43;;;7.27;;
15061;SDS011;7630;50.306;8.566;2022-08-25T20:04:50;6.97;;;6.47;;
15061;SDS011;7630;50.306;8.566;2022-08-25T20:08:52;9.33;;;7.37;;
15061;SDS011;7630;50.306;8.566;2022-08-25T20:12:56;7.23;;;6.67;;
15061;SDS011;7630;50.306;8.566;2022-08-25T20:16:57;6.17;;;5.60;;
15061;SDS011;7630;50.306;8.566;2022-08-25T20:20:59;6.77;;;6.13;;
15061;SDS011;7630;50.306;8.566;2022-08-25T20:25:03;7.45;;;6.75;;
15061;SDS011;7630;50.306;8.566;2022-08-25T20:29:08;7.80;;;6.90;;
15061;SDS011;7630;50.306;8.566;2022-08-25T20:33:11;7.90;;;7.20;;
15061;SDS011;7630;50.306;8.566;2022-08-25T20:37:13;7.43;;;6.93;;
15061;SDS011;7630;50.306;8.566;2022-08-25T20:41:14;8.83;;;6.23;;
15061;SDS011;7630;50.306;8.566;2022-08-25T20:45:15;7.43;;;6.93;;
15061;SDS011;7630;50.306;8.566;2022-08-25T20:49:20;7.60;;;6.93;;
15061;SDS011;7630;50.306;8.566;2022-08-25T20:53:21;7.50;;;6.90;;
15061;SDS011;7630;50.306;8.566;2022-08-25T20:57:24;7.60;;;6.90;;
15061;SDS011;7630;50.306;8.566;2022-08-25T21:01:28;8.77;;;7.97;;
15061;SDS011;7630;50.306;8.566;2022-08-25T21:05:40;10.20;;;8.17;;
15061;SDS011;7630;50.306;8.566;2022-08-25T21:09:42;8.80;;;7.90;;
15061;SDS011;7630;50.306;8.566;2022-08-25T21:13:43;8.57;;;7.77;;
15061;SDS011;7630;50.306;8.566;2022-08-25T21:17:50;8.33;;;7.53;;
15061;SDS011;7630;50.306;8.566;2022-08-25T21:21:54;10.90;;;7.97;;
15061;SDS011;7630;50.306;8.566;2022-08-25T21:25:57;9.93;;;8.60;;
15061;SDS011;7630;50.306;8.566;2022-08-25T21:29:58;8.63;;;7.97;;
15061;SDS011;7630;50.306;8.566;2022-08-25T21:34:00;9.23;;;8.43;;
15061;SDS011;7630;50.306;8.566;2022-08-25T21:38:02;9.60;;;8.70;;
15061;SDS011;7630;50.306;8.566;2022-08-25T21:42:03;10.13;;;9.27;;
15061;SDS011;7630;50.306;8.566;2022-08-25T21:46:08;9.90;;;8.43;;
15061;SDS011;7630;50.306;8.566;2022-08-25T21:50:13;12.17;;;9.10;;
15061;SDS011;7630;50.306;8.566;2022-08-25T21:54:15;10.20;;;9.20;;
15061;SDS011;7630;50.306;8.566;2022-08-25T21:58:17;16.57;;;8.70;;
15061;SDS011;7630;50.306;8.566;2022-08-25T22:02:19;9.07;;;8.23;;
15061;SDS011;7630;50.306;8.566;2022-08-25T22:06:23;8.60;;;8.00;;
15061;SDS011;7630;50.306;8.566;2022-08-25T22:10:24;8.67;;;7.87;;
15061;SDS011;7630;50.306;8.566;2022-08-25T22:14:25;9.67;;;8.83;;
15061;SDS011;7630;50.306;8.566;2022-08-25T22:18:29;9.63;;;8.50;;
15061;SDS011;7630;50.306;8.566;2022-08-25T22:22:30;13.60;;;12.37;;
15061;SDS011;7630;50.306;8.566;2022-08-25T22:26:31;12.70;;;11.57;;
15061;SDS011;7630;50.306;8.566;2022-08-25T22:30:33;10.37;;;9.47;;
15061;SDS011;7630;50.306;8.566;2022-08-25T22:34:37;10.17;;;9.23;;
15061;SDS011;7630;50.306;8.566;2022-08-25T22:38:40;9.33;;;8.53;;
15061;SDS011;7630;50.306;8.566;2022-08-25T22:42:42;9.37;;;8.47;;
15061;SDS011;7630;50.306;8.566;2022-08-25T22:46:45;8.57;;;7.73;;
15061;SDS011;7630;50.306;8.566;2022-08-25T22:50:46;10.10;;;9.17;;
15061;SDS011;7630;50.306;8.566;2022-08-25T22:54:48;9.13;;;8.33;;
15061;SDS011;7630;50.306;8.566;2022-08-25T22:58:49;10.03;;;8.70;;
15061;SDS011;7630;50.306;8.566;2022-08-25T23:02:52;9.90;;;9.20;;
15061;SDS011;7630;50.306;8.566;2022-08-25T23:06:53;10.53;;;9.70;;
15061;SDS011;7630;50.306;8.566;2022-08-25T23:10:55;11.63;;;10.63;;
15061;SDS011;7630;50.306;8.566;2022-08-25T23:14:56;11.97;;;10.50;;
15061;SDS011;7630;50.306;8.566;2022-08-25T23:18:58;9.13;;;8.33;;
15061;SDS011;7630;50.306;8.566;2022-08-25T23:22:59;13.13;;;9.97;;
15061;SDS011;7630;50.306;8.566;2022-08-25T23:27:01;10.57;;;9.57;;
15061;SDS011;7630;50.306;8.566;2022-08-25T23:31:05;11.10;;;9.97;;
15061;SDS011;7630;50.306;8.566;2022-08-25T23:35:09;12.03;;;9.43;;
15061;SDS011;7630;50.306;8.566;2022-08-25T23:39:10;10.10;;;9.10;;
15061;SDS011;7630;50.306;8.566;2022-08-25T23:43:11;9.60;;;8.70;;
15061;SDS011;7630;50.306;8.566;2022-08-25T23:47:13;9.07;;;8.37;;
15061;SDS011;7630;50.306;8.566;2022-08-25T23:51:24;10.20;;;9.40;;
15061;SDS011;7630;50.306;8.566;2022-08-25T23:55:27;9.57;;;8.77;;
15061;SDS011;7630;50.306;8.566;2022-08-25T23:59:31;8.77;;;8.07;;
